sensor_id;sensor_type;location;lat;lon;timestamp;pressure;altitude;pressure_sealevel;temperature;humidity
48614;BME280;34408;51.426;5.444;2022-09-13T00:02:10;100947.94;;;20.24;59.35
48614;BME280;34408;51.426;5.444;2022-09-13T00:04:38;100946.28;;;20.23;59.26
48614;BME280;34408;51.426;5.444;2022-09-13T00:07:06;100945.47;;;20.23;59.17
48614;BME280;34408;51.426;5.444;2022-09-13T00:09:34;100943.84;;;20.22;59.36
48614;BME280;34408;51.426;5.444;2022-09-13T00:12:03;100941.41;;;20.20;59.38
48614;BME280;34408;51.426;5.444;2022-09-13T00:14:32;100944.13;;;20.20;59.27
48614;BME280;34408;51.426;5.444;2022-09-13T00:17:00;100940.88;;;20.18;59.35
48614;BME280;34408;51.426;5.444;2022-09-13T00:19:27;100936.22;;;20.19;59.50
48614;BME280;34408;51.426;5.444;2022-09-13T00:21:55;100924.50;;;20.18;59.25
48614;BME280;34408;51.426;5.444;2022-09-13T00:24:23;100932.16;;;20.16;59.36
48614;BME280;34408;51.426;5.444;2022-09-13T00:26:50;100933.25;;;20.15;59.24
48614;BME280;34408;51.426;5.444;2022-09-13T00:29:18;100927.78;;;20.15;59.24
48614;BME280;34408;51.426;5.444;2022-09-13T00:31:47;100929.72;;;20.14;59.35
48614;BME280;34408;51.426;5.444;2022-09-13T00:34:14;100925.09;;;20.10;59.45
48614;BME280;34408;51.426;5.444;2022-09-13T00:36:42;100927.25;;;20.13;59.45
48614;BME280;34408;51.426;5.444;2022-09-13T00:39:11;100922.91;;;20.12;59.42
48614;BME280;34408;51.426;5.444;2022-09-13T00:41:38;100919.91;;;20.13;59.43
48614;BME280;34408;51.426;5.444;2022-09-13T00:47:09;100918.25;;;20.12;59.49
48614;BME280;34408;51.426;5.444;2022-09-13T00:49:40;100913.38;;;20.09;59.64
48614;BME280;34408;51.426;5.444;2022-09-13T00:52:13;100904.09;;;20.10;59.65
48614;BME280;34408;51.426;5.444;2022-09-13T00:54:46;100910.66;;;20.09;59.70
48614;BME280;34408;51.426;5.444;2022-09-13T00:57:16;100905.47;;;20.08;59.55
48614;BME280;34408;51.426;5.444;2022-09-13T00:59:47;100908.19;;;20.08;59.68
48614;BME280;34408;51.426;5.444;2022-09-13T01:02:20;100906.56;;;20.07;59.56
48614;BME280;34408;51.426;5.444;2022-09-13T01:04:48;100900.28;;;20.06;59.66
48614;BME280;34408;51.426;5.444;2022-09-13T01:07:16;100908.47;;;20.06;59.67
48614;BME280;34408;51.426;5.444;2022-09-13T01:09:47;100899.75;;;20.04;59.79
48614;BME280;34408;51.426;5.444;2022-09-13T01:12:24;100888.59;;;20.01;59.75
48614;BME280;34408;51.426;5.444;2022-09-13T01:14:58;100895.41;;;20.03;59.67
48614;BME280;34408;51.426;5.444;2022-09-13T01:17:30;100884.78;;;20.02;59.74
48614;BME280;34408;51.426;5.444;2022-09-13T01:19:58;100893.25;;;20.00;59.74
48614;BME280;34408;51.426;5.444;2022-09-13T01:22:43;100890.53;;;20.00;59.88
48614;BME280;34408;51.426;5.444;2022-09-13T01:25:50;100893.53;;;19.99;59.77
48614;BME280;34408;51.426;5.444;2022-09-13T01:28:44;100884.53;;;19.98;59.78
48614;BME280;34408;51.426;5.444;2022-09-13T01:31:24;100876.63;;;19.97;59.88
48614;BME280;34408;51.426;5.444;2022-09-13T01:34:15;100880.47;;;19.96;59.87
48614;BME280;34408;51.426;5.444;2022-09-13T01:37:00;100878.81;;;19.95;59.74
48614;BME280;34408;51.426;5.444;2022-09-13T01:39:42;100873.38;;;19.95;60.00
48614;BME280;34408;51.426;5.444;2022-09-13T01:42:22;100870.94;;;19.93;59.89
48614;BME280;34408;51.426;5.444;2022-09-13T01:45:03;100883.75;;;19.93;59.94
48614;BME280;34408;51.426;5.444;2022-09-13T01:47:42;100873.13;;;19.91;59.89
48614;BME280;34408;51.426;5.444;2022-09-13T01:50:16;100875.03;;;19.91;60.08
48614;BME280;34408;51.426;5.444;2022-09-13T01:52:51;100868.22;;;19.88;59.93
48614;BME280;34408;51.426;5.444;2022-09-13T01:55:29;100870.69;;;19.90;59.88
48614;BME280;34408;51.426;5.444;2022-09-13T01:58:06;100864.69;;;19.88;60.04
48614;BME280;34408;51.426;5.444;2022-09-13T02:00:40;100872.34;;;19.86;60.05
48614;BME280;34408;51.426;5.444;2022-09-13T02:03:15;100876.69;;;19.87;60.00
48614;BME280;34408;51.426;5.444;2022-09-13T02:05:46;100877.78;;;19.86;60.15
48614;BME280;34408;51.426;5.444;2022-09-13T02:08:18;100872.34;;;19.86;60.18
48614;BME280;34408;51.426;5.444;2022-09-13T02:10:50;100885.16;;;19.85;60.00
48614;BME280;34408;51.426;5.444;2022-09-13T02:13:22;100871.00;;;19.83;60.43
48614;BME280;34408;51.426;5.444;2022-09-13T02:15:54;100875.63;;;19.82;60.42
48614;BME280;34408;51.426;5.444;2022-09-13T02:18:28;100871.28;;;19.81;60.31
48614;BME280;34408;51.426;5.444;2022-09-13T02:21:01;100880.28;;;19.82;60.24
48614;BME280;34408;51.426;5.444;2022-09-13T02:23:37;100881.38;;;19.81;60.44
48614;BME280;34408;51.426;5.444;2022-09-13T02:26:08;100890.38;;;19.81;60.49
48614;BME280;34408;51.426;5.444;2022-09-13T02:28:41;100889.84;;;19.79;60.53
48614;BME280;34408;51.426;5.444;2022-09-13T02:31:10;100892.56;;;19.79;60.63
48614;BME280;34408;51.426;5.444;2022-09-13T02:33:43;100889.84;;;19.79;60.57
48614;BME280;34408;51.426;5.444;2022-09-13T02:36:16;100890.94;;;19.78;60.78
48614;BME280;34408;51.426;5.444;2022-09-13T02:38:49;100894.75;;;19.77;60.67
48614;BME280;34408;51.426;5.444;2022-09-13T02:41:24;100893.13;;;19.76;60.71
48614;BME280;34408;51.426;5.444;2022-09-13T02:44:00;100895.84;;;19.76;60.86
48614;BME280;34408;51.426;5.444;2022-09-13T02:46:43;100895.84;;;19.76;60.98
48614;BME280;34408;51.426;5.444;2022-09-13T02:49:21;100906.75;;;19.76;61.10
48614;BME280;34408;51.426;5.444;2022-09-13T02:51:54;100899.69;;;19.75;61.16
48614;BME280;34408;51.426;5.444;2022-09-13T02:54:28;100905.13;;;19.75;61.09
48614;BME280;34408;51.426;5.444;2022-09-13T02:57:04;100906.22;;;19.74;60.98
48614;BME280;34408;51.426;5.444;2022-09-13T02:59:32;100895.59;;;19.73;60.92
48614;BME280;34408;51.426;5.444;2022-09-13T03:02:04;100892.88;;;19.73;60.98
48614;BME280;34408;51.426;5.444;2022-09-13T03:04:34;100899.16;;;19.73;61.10
48614;BME280;34408;51.426;5.444;2022-09-13T03:07:03;100893.16;;;19.71;61.03
48614;BME280;34408;51.426;5.444;2022-09-13T03:09:33;100899.72;;;19.70;61.24
48614;BME280;34408;51.426;5.444;2022-09-13T03:12:12;100897.25;;;19.69;61.09
48614;BME280;34408;51.426;5.444;2022-09-13T03:14:49;100892.91;;;19.68;60.98
48614;BME280;34408;51.426;5.444;2022-09-13T03:17:31;100887.44;;;19.68;60.95
48614;BME280;34408;51.426;5.444;2022-09-13T03:20:09;100885.81;;;19.67;61.04
48614;BME280;34408;51.426;5.444;2022-09-13T03:25:52;100883.38;;;19.65;61.18
48614;BME280;34408;51.426;5.444;2022-09-13T03:28:28;100887.19;;;19.64;61.33
48614;BME280;34408;51.426;5.444;2022-09-13T03:31:03;100884.75;;;19.63;61.46
48614;BME280;34408;51.426;5.444;2022-09-13T03:33:40;100873.84;;;19.63;61.28
48614;BME280;34408;51.426;5.444;2022-09-13T03:36:14;100885.03;;;19.61;61.55
48614;BME280;34408;51.426;5.444;2022-09-13T03:38:51;100885.84;;;19.62;61.46
48614;BME280;34408;51.426;5.444;2022-09-13T03:41:23;100882.59;;;19.60;61.32
48614;BME280;34408;51.426;5.444;2022-09-13T03:43:56;100879.84;;;19.60;61.38
48614;BME280;34408;51.426;5.444;2022-09-13T03:46:28;100874.41;;;19.60;61.66
48614;BME280;34408;51.426;5.444;2022-09-13T03:49:00;100871.97;;;19.58;61.61
48614;BME280;34408;51.426;5.444;2022-09-13T03:51:32;100873.88;;;19.58;61.68
48614;BME280;34408;51.426;5.444;2022-09-13T03:54:03;100880.41;;;19.57;61.67
48614;BME280;34408;51.426;5.444;2022-09-13T03:56:31;100884.25;;;19.56;61.83
48614;BME280;34408;51.426;5.444;2022-09-13T03:58:59;100894.06;;;19.57;61.87
48614;BME280;34408;51.426;5.444;2022-09-13T04:01:27;100883.44;;;19.55;61.89
48614;BME280;34408;51.426;5.444;2022-09-13T04:03:54;100895.16;;;19.56;62.08
48614;BME280;34408;51.426;5.444;2022-09-13T04:06:22;100888.06;;;19.55;61.77
48614;BME280;34408;51.426;5.444;2022-09-13T04:08:51;100881.78;;;19.54;61.56
48614;BME280;34408;51.426;5.444;2022-09-13T04:11:19;100874.72;;;19.53;61.72
48614;BME280;34408;51.426;5.444;2022-09-13T04:13:47;100874.72;;;19.53;62.00
48614;BME280;34408;51.426;5.444;2022-09-13T04:16:15;100879.34;;;19.53;61.64
48614;BME280;34408;51.426;5.444;2022-09-13T04:18:43;100880.44;;;19.52;61.96
48614;BME280;34408;51.426;5.444;2022-09-13T04:21:10;100890.25;;;19.53;62.06
48614;BME280;34408;51.426;5.444;2022-09-13T04:23:38;100880.44;;;19.52;62.11
48614;BME280;34408;51.426;5.444;2022-09-13T04:26:08;100888.63;;;19.52;62.19
48614;BME280;34408;51.426;5.444;2022-09-13T04:28:36;100886.97;;;19.50;62.14
48614;BME280;34408;51.426;5.444;2022-09-13T04:31:03;100902.50;;;19.50;61.95
48614;BME280;34408;51.426;5.444;2022-09-13T04:33:31;100907.97;;;19.50;62.04
48614;BME280;34408;51.426;5.444;2022-09-13T04:35:59;100893.28;;;19.41;62.22
48614;BME280;34408;51.426;5.444;2022-09-13T04:38:27;100900.88;;;19.49;62.14
48614;BME280;34408;51.426;5.444;2022-09-13T04:40:57;100914.53;;;19.44;62.20
48614;BME280;34408;51.426;5.444;2022-09-13T04:43:26;100920.22;;;19.47;62.49
48614;BME280;34408;51.426;5.444;2022-09-13T04:45:54;100913.69;;;19.48;62.38
48614;BME280;34408;51.426;5.444;2022-09-13T04:48:26;100913.97;;;19.47;62.39
48614;BME280;34408;51.426;5.444;2022-09-13T04:51:00;100910.44;;;19.46;62.15
48614;BME280;34408;51.426;5.444;2022-09-13T04:53:27;100916.97;;;19.45;62.13
48614;BME280;34408;51.426;5.444;2022-09-13T04:55:59;100918.88;;;19.45;62.34
48614;BME280;34408;51.426;5.444;2022-09-13T04:58:29;100913.72;;;19.43;62.30
48614;BME280;34408;51.426;5.444;2022-09-13T05:01:00;100916.44;;;19.43;62.43
48614;BME280;34408;51.426;5.444;2022-09-13T05:03:28;100909.91;;;19.39;62.32
48614;BME280;34408;51.426;5.444;2022-09-13T05:06:00;100903.91;;;19.42;62.42
48614;BME280;34408;51.426;5.444;2022-09-13T05:08:29;100902.28;;;19.41;62.56
48614;BME280;34408;51.426;5.444;2022-09-13T05:10:57;100907.72;;;19.41;62.63
48614;BME280;34408;51.426;5.444;2022-09-13T05:13:25;100905.00;;;19.41;62.37
48614;BME280;34408;51.426;5.444;2022-09-13T05:15:55;100908.00;;;19.40;62.49
48614;BME280;34408;51.426;5.444;2022-09-13T05:18:25;100904.47;;;19.39;62.60
48614;BME280;34408;51.426;5.444;2022-09-13T05:20:53;100907.19;;;19.39;62.80
48614;BME280;34408;51.426;5.444;2022-09-13T05:23:21;100908.28;;;19.38;62.53
48614;BME280;34408;51.426;5.444;2022-09-13T05:25:52;100913.19;;;19.36;62.60
48614;BME280;34408;51.426;5.444;2022-09-13T05:28:20;100911.28;;;19.37;62.82
48614;BME280;34408;51.426;5.444;2022-09-13T05:30:56;100908.31;;;19.33;62.84
48614;BME280;34408;51.426;5.444;2022-09-13T05:33:24;100914.56;;;19.34;62.89
48614;BME280;34408;51.426;5.444;2022-09-13T05:35:53;100911.03;;;19.33;62.63
48614;BME280;34408;51.426;5.444;2022-09-13T05:38:20;100921.94;;;19.33;62.91
48614;BME280;34408;51.426;5.444;2022-09-13T05:40:53;100928.19;;;19.34;62.83
48614;BME280;34408;51.426;5.444;2022-09-13T05:43:21;100920.28;;;19.32;62.96
48614;BME280;34408;51.426;5.444;2022-09-13T05:46:00;100922.22;;;19.32;62.67
48614;BME280;34408;51.426;5.444;2022-09-13T05:48:28;100920.28;;;19.32;62.81
48614;BME280;34408;51.426;5.444;2022-09-13T05:51:03;100924.94;;;19.32;62.66
48614;BME280;34408;51.426;5.444;2022-09-13T05:53:31;100921.66;;;19.30;62.62
48614;BME280;34408;51.426;5.444;2022-09-13T05:55:59;100924.38;;;19.30;62.51
48614;BME280;34408;51.426;5.444;2022-09-13T05:58:27;100918.94;;;19.30;62.58
48614;BME280;34408;51.426;5.444;2022-09-13T06:00:55;100921.66;;;19.30;62.53
48614;BME280;34408;51.426;5.444;2022-09-13T06:03:24;100925.47;;;19.29;62.45
48614;BME280;34408;51.426;5.444;2022-09-13T06:05:54;100926.31;;;19.29;62.50
48614;BME280;34408;51.426;5.444;2022-09-13T06:08:22;100926.31;;;19.29;62.26
48614;BME280;34408;51.426;5.444;2022-09-13T06:10:54;100930.13;;;19.28;62.51
48614;BME280;34408;51.426;5.444;2022-09-13T06:13:22;100935.56;;;19.28;62.41
48614;BME280;34408;51.426;5.444;2022-09-13T06:15:51;100918.41;;;19.28;63.15
48614;BME280;34408;51.426;5.444;2022-09-13T06:18:19;100929.31;;;19.28;62.84
48614;BME280;34408;51.426;5.444;2022-09-13T06:20:49;100934.47;;;19.29;62.90
48614;BME280;34408;51.426;5.444;2022-09-13T06:23:17;100932.84;;;19.28;62.66
48614;BME280;34408;51.426;5.444;2022-09-13T06:25:44;100932.56;;;19.30;62.81
48614;BME280;34408;51.426;5.444;2022-09-13T06:28:12;100929.31;;;19.28;62.96
48614;BME280;34408;51.426;5.444;2022-09-13T06:30:40;100927.41;;;19.28;62.88
48614;BME280;34408;51.426;5.444;2022-09-13T06:33:07;100923.84;;;19.28;62.78
48614;BME280;34408;51.426;5.444;2022-09-13T06:35:35;100921.13;;;19.28;62.90
48614;BME280;34408;51.426;5.444;2022-09-13T06:38:04;100916.50;;;19.28;62.94
48614;BME280;34408;51.426;5.444;2022-09-13T06:40:32;100914.03;;;19.27;62.72
48614;BME280;34408;51.426;5.444;2022-09-13T06:43:00;100915.69;;;19.28;62.79
48614;BME280;34408;51.426;5.444;2022-09-13T06:45:27;100928.22;;;19.29;62.95
48614;BME280;34408;51.426;5.444;2022-09-13T06:47:55;100924.66;;;19.28;62.95
48614;BME280;34408;51.426;5.444;2022-09-13T06:50:23;100912.94;;;19.28;62.89
48614;BME280;34408;51.426;5.444;2022-09-13T06:52:51;100921.94;;;19.28;62.74
48614;BME280;34408;51.426;5.444;2022-09-13T06:55:20;100917.31;;;19.29;62.94
48614;BME280;34408;51.426;5.444;2022-09-13T06:57:48;100927.41;;;19.28;62.91
48614;BME280;34408;51.426;5.444;2022-09-13T07:00:16;100921.94;;;19.28;62.94
48614;BME280;34408;51.426;5.444;2022-09-13T07:02:43;100920.03;;;19.29;62.75
48614;BME280;34408;51.426;5.444;2022-09-13T07:05:11;100920.03;;;19.29;62.84
48614;BME280;34408;51.426;5.444;2022-09-13T07:07:39;100922.75;;;19.29;62.78
48614;BME280;34408;51.426;5.444;2022-09-13T07:10:07;100928.22;;;19.29;62.62
48614;BME280;34408;51.426;5.444;2022-09-13T07:12:39;100927.41;;;19.28;62.78
48614;BME280;34408;51.426;5.444;2022-09-13T07:15:07;100925.47;;;19.29;62.60
48614;BME280;34408;51.426;5.444;2022-09-13T07:17:35;100928.22;;;19.29;62.45
48614;BME280;34408;51.426;5.444;2022-09-13T07:20:03;100932.84;;;19.28;62.38
48614;BME280;34408;51.426;5.444;2022-09-13T07:22:34;100927.13;;;19.30;62.34
48614;BME280;34408;51.426;5.444;2022-09-13T07:25:01;100930.66;;;19.30;62.21
48614;BME280;34408;51.426;5.444;2022-09-13T07:27:29;100931.47;;;19.31;62.17
48614;BME280;34408;51.426;5.444;2022-09-13T07:29:58;100928.22;;;19.29;62.40
48614;BME280;34408;51.426;5.444;2022-09-13T07:32:26;100928.75;;;19.31;62.27
48614;BME280;34408;51.426;5.444;2022-09-13T07:34:54;100940.19;;;19.33;62.23
48614;BME280;34408;51.426;5.444;2022-09-13T07:37:21;100934.19;;;19.31;62.19
48614;BME280;34408;51.426;5.444;2022-09-13T07:39:49;100936.38;;;19.34;61.97
48614;BME280;34408;51.426;5.444;2022-09-13T07:42:17;100932.81;;;19.33;62.28
48614;BME280;34408;51.426;5.444;2022-09-13T07:44:44;100934.72;;;19.33;62.22
48614;BME280;34408;51.426;5.444;2022-09-13T07:47:13;100937.47;;;19.33;61.98
48614;BME280;34408;51.426;5.444;2022-09-13T07:49:41;100941.00;;;19.33;62.01
48614;BME280;34408;51.426;5.444;2022-09-13T07:52:09;100938.81;;;19.35;62.13
48614;BME280;34408;51.426;5.444;2022-09-13T07:54:36;100943.44;;;19.35;62.16
48614;BME280;34408;51.426;5.444;2022-09-13T07:57:04;100943.44;;;19.35;62.24
48614;BME280;34408;51.426;5.444;2022-09-13T07:59:32;100946.19;;;19.35;62.27
48614;BME280;34408;51.426;5.444;2022-09-13T08:01:59;100953.25;;;19.36;62.33
48614;BME280;34408;51.426;5.444;2022-09-13T08:04:29;100952.16;;;19.37;62.23
48614;BME280;34408;51.426;5.444;2022-09-13T08:07:01;100954.63;;;19.38;62.30
48614;BME280;34408;51.426;5.444;2022-09-13T08:09:29;100955.44;;;19.39;62.14
48614;BME280;34408;51.426;5.444;2022-09-13T08:11:57;100948.06;;;19.39;62.06
48614;BME280;34408;51.426;5.444;2022-09-13T08:14:24;100950.78;;;19.39;62.37
48614;BME280;34408;51.426;5.444;2022-09-13T08:16:54;100951.63;;;19.40;62.13
48614;BME280;34408;51.426;5.444;2022-09-13T08:19:22;100953.25;;;19.41;62.18
48614;BME280;34408;51.426;5.444;2022-09-13T08:21:51;100959.22;;;19.43;62.34
48614;BME280;34408;51.426;5.444;2022-09-13T08:24:20;100957.31;;;19.43;62.42
48614;BME280;34408;51.426;5.444;2022-09-13T08:26:48;100955.13;;;19.45;62.30
48614;BME280;34408;51.426;5.444;2022-09-13T08:29:17;100962.75;;;19.48;62.44
48614;BME280;34408;51.426;5.444;2022-09-13T08:31:45;100965.47;;;19.48;62.45
48614;BME280;34408;51.426;5.444;2022-09-13T08:34:14;100963.28;;;19.50;62.24
48614;BME280;34408;51.426;5.444;2022-09-13T08:36:43;100967.69;;;19.52;62.52
48614;BME280;34408;51.426;5.444;2022-09-13T08:39:12;100968.22;;;19.54;62.42
48614;BME280;34408;51.426;5.444;2022-09-13T08:41:54;100960.59;;;19.56;62.33
48614;BME280;34408;51.426;5.444;2022-09-13T08:44:27;100970.38;;;19.57;62.57
48614;BME280;34408;51.426;5.444;2022-09-13T08:47:00;100963.84;;;19.58;62.56
48614;BME280;34408;51.426;5.444;2022-09-13T08:49:33;100957.03;;;19.60;62.55
48614;BME280;34408;51.426;5.444;2022-09-13T08:52:15;100962.19;;;19.62;62.71
48614;BME280;34408;51.426;5.444;2022-09-13T08:54:45;100957.28;;;19.64;62.76
48614;BME280;34408;51.426;5.444;2022-09-13T08:57:16;100957.00;;;19.65;62.86
48614;BME280;34408;51.426;5.444;2022-09-13T08:59:52;100948.25;;;19.68;62.80
48614;BME280;34408;51.426;5.444;2022-09-13T09:02:36;100949.88;;;19.69;62.85
48614;BME280;34408;51.426;5.444;2022-09-13T09:05:14;100954.78;;;19.72;63.07
48614;BME280;34408;51.426;5.444;2022-09-13T09:07:44;100944.41;;;19.74;63.40
48614;BME280;34408;51.426;5.444;2022-09-13T09:10:17;100940.59;;;19.75;63.72
48614;BME280;34408;51.426;5.444;2022-09-13T09:12:49;100948.22;;;19.78;63.92
48614;BME280;34408;51.426;5.444;2022-09-13T09:15:20;100943.28;;;19.80;63.68
48614;BME280;34408;51.426;5.444;2022-09-13T09:17:56;100947.66;;;19.81;63.56
48614;BME280;34408;51.426;5.444;2022-09-13T09:20:28;100941.38;;;19.81;63.73
48614;BME280;34408;51.426;5.444;2022-09-13T09:23:01;100943.25;;;19.86;63.67
48614;BME280;34408;51.426;5.444;2022-09-13T09:25:30;100948.44;;;19.87;63.66
48614;BME280;34408;51.426;5.444;2022-09-13T09:28:05;100942.41;;;19.90;63.83
48614;BME280;34408;51.426;5.444;2022-09-13T09:30:40;100953.03;;;19.92;63.83
48614;BME280;34408;51.426;5.444;2022-09-13T09:33:22;100957.94;;;19.95;63.56
48614;BME280;34408;51.426;5.444;2022-09-13T09:35:59;100954.94;;;19.96;63.85
48614;BME280;34408;51.426;5.444;2022-09-13T09:38:35;100949.19;;;19.98;63.85
48614;BME280;34408;51.426;5.444;2022-09-13T09:41:12;100942.34;;;20.00;63.72
48614;BME280;34408;51.426;5.444;2022-09-13T09:43:41;100942.88;;;20.02;63.87
48614;BME280;34408;51.426;5.444;2022-09-13T09:46:11;100934.41;;;20.04;63.76
48614;BME280;34408;51.426;5.444;2022-09-13T09:48:45;100938.50;;;20.06;63.86
48614;BME280;34408;51.426;5.444;2022-09-13T09:51:16;100937.94;;;20.09;63.90
48614;BME280;34408;51.426;5.444;2022-09-13T09:53:47;100940.38;;;20.11;64.07
48614;BME280;34408;51.426;5.444;2022-09-13T09:56:23;100931.91;;;20.12;63.92
48614;BME280;34408;51.426;5.444;2022-09-13T09:58:52;100929.19;;;20.12;63.82
48614;BME280;34408;51.426;5.444;2022-09-13T10:01:23;100935.16;;;20.14;63.99
48614;BME280;34408;51.426;5.444;2022-09-13T10:03:57;100941.16;;;20.17;64.04
48614;BME280;34408;51.426;5.444;2022-09-13T10:06:27;100940.31;;;20.21;64.03
48614;BME280;34408;51.426;5.444;2022-09-13T10:08:59;100944.38;;;20.24;64.10
48614;BME280;34408;51.426;5.444;2022-09-13T10:11:40;100942.19;;;20.26;64.15
48614;BME280;34408;51.426;5.444;2022-09-13T10:14:28;100935.34;;;20.28;64.09
48614;BME280;34408;51.426;5.444;2022-09-13T10:17:14;100935.88;;;20.30;64.26
48614;BME280;34408;51.426;5.444;2022-09-13T10:19:53;100929.84;;;20.33;64.13
48614;BME280;34408;51.426;5.444;2022-09-13T10:22:23;100929.56;;;20.35;64.14
48614;BME280;34408;51.426;5.444;2022-09-13T10:24:51;100929.00;;;20.38;64.26
48614;BME280;34408;51.426;5.444;2022-09-13T10:27:24;100924.38;;;20.38;64.35
48614;BME280;34408;51.426;5.444;2022-09-13T10:29:57;100928.69;;;20.44;64.18
48614;BME280;34408;51.426;5.444;2022-09-13T10:32:27;100931.97;;;20.46;63.82
48614;BME280;34408;51.426;5.444;2022-09-13T10:34:56;100937.13;;;20.48;63.96
48614;BME280;34408;51.426;5.444;2022-09-13T10:37:28;100927.56;;;20.51;64.02
48614;BME280;34408;51.426;5.444;2022-09-13T10:40:02;100926.16;;;20.53;64.16
48614;BME280;34408;51.426;5.444;2022-09-13T10:42:34;100924.50;;;20.57;63.97
48614;BME280;34408;51.426;5.444;2022-09-13T10:45:04;100925.03;;;20.59;63.76
48614;BME280;34408;51.426;5.444;2022-09-13T10:47:36;100920.91;;;20.62;63.93
48614;BME280;34408;51.426;5.444;2022-09-13T10:50:17;100918.41;;;20.65;64.13
48614;BME280;34408;51.426;5.444;2022-09-13T10:52:47;100919.47;;;20.69;64.09
48614;BME280;34408;51.426;5.444;2022-09-13T10:55:33;100920.00;;;20.71;63.81
48614;BME280;34408;51.426;5.444;2022-09-13T10:58:28;100911.22;;;20.74;64.00
48614;BME280;34408;51.426;5.444;2022-09-13T11:04:38;100906.22;;;20.82;64.09
48614;BME280;34408;51.426;5.444;2022-09-13T11:07:29;100902.91;;;20.85;64.26
48614;BME280;34408;51.426;5.444;2022-09-13T11:10:02;100901.50;;;20.87;64.15
48614;BME280;34408;51.426;5.444;2022-09-13T11:12:40;100899.81;;;20.91;64.08
48614;BME280;34408;51.426;5.444;2022-09-13T11:15:20;100907.97;;;20.96;64.11
48614;BME280;34408;51.426;5.444;2022-09-13T11:18:05;100894.25;;;21.01;64.23
48614;BME280;34408;51.426;5.444;2022-09-13T11:20:44;100895.59;;;21.04;64.28
48614;BME280;34408;51.426;5.444;2022-09-13T11:23:34;100897.75;;;21.07;64.34
48614;BME280;34408;51.426;5.444;2022-09-13T11:26:29;100890.88;;;21.09;64.20
48614;BME280;34408;51.426;5.444;2022-09-13T11:29:13;100891.94;;;21.13;64.30
48614;BME280;34408;51.426;5.444;2022-09-13T11:31:54;100891.34;;;21.17;64.32
48614;BME280;34408;51.426;5.444;2022-09-13T11:34:39;100887.22;;;21.19;64.37
48614;BME280;34408;51.426;5.444;2022-09-13T11:37:19;100881.72;;;21.24;64.19
48614;BME280;34408;51.426;5.444;2022-09-13T11:39:59;100878.09;;;21.29;64.09
48614;BME280;34408;51.426;5.444;2022-09-13T11:42:39;100878.03;;;21.34;64.19
48614;BME280;34408;51.426;5.444;2022-09-13T11:45:22;100874.22;;;21.35;64.04
48614;BME280;34408;51.426;5.444;2022-09-13T11:48:05;100874.72;;;21.37;63.79
48614;BME280;34408;51.426;5.444;2022-09-13T11:50:40;100883.44;;;21.39;63.86
48614;BME280;34408;51.426;5.444;2022-09-13T11:53:27;100880.13;;;21.42;63.79
48614;BME280;34408;51.426;5.444;2022-09-13T11:56:00;100885.00;;;21.45;63.67
48614;BME280;34408;51.426;5.444;2022-09-13T11:58:34;100891.81;;;21.48;63.62
48614;BME280;34408;51.426;5.444;2022-09-13T12:01:06;100883.03;;;21.51;63.52
48614;BME280;34408;51.426;5.444;2022-09-13T12:03:41;100882.94;;;21.56;63.60
48614;BME280;34408;51.426;5.444;2022-09-13T12:06:12;100883.19;;;21.59;63.38
48614;BME280;34408;51.426;5.444;2022-09-13T12:08:44;100878.75;;;21.63;63.38
48614;BME280;34408;51.426;5.444;2022-09-13T12:11:18;100880.91;;;21.66;63.26
48614;BME280;34408;51.426;5.444;2022-09-13T12:13:50;100874.84;;;21.69;63.50
48614;BME280;34408;51.426;5.444;2022-09-13T12:16:22;100875.34;;;21.71;63.10
48614;BME280;34408;51.426;5.444;2022-09-13T12:18:55;100876.69;;;21.74;62.66
48614;BME280;34408;51.426;5.444;2022-09-13T12:21:28;100869.28;;;21.74;61.99
48614;BME280;34408;51.426;5.444;2022-09-13T12:24:01;100862.50;;;21.72;62.17
48614;BME280;34408;51.426;5.444;2022-09-13T12:26:33;100868.19;;;21.75;62.28
48614;BME280;34408;51.426;5.444;2022-09-13T12:29:06;100861.31;;;21.78;61.87
48614;BME280;34408;51.426;5.444;2022-09-13T12:31:38;100867.81;;;21.82;61.93
48614;BME280;34408;51.426;5.444;2022-09-13T12:34:10;100860.63;;;21.86;61.30
48614;BME280;34408;51.426;5.444;2022-09-13T12:37:00;100855.97;;;21.87;61.16
48614;BME280;34408;51.426;5.444;2022-09-13T12:39:39;100852.94;;;21.88;60.70
48614;BME280;34408;51.426;5.444;2022-09-13T12:42:47;100855.59;;;21.93;60.99
48614;BME280;34408;51.426;5.444;2022-09-13T12:45:32;100856.34;;;21.99;61.10
48614;BME280;34408;51.426;5.444;2022-09-13T12:48:19;100856.84;;;22.01;61.03
48614;BME280;34408;51.426;5.444;2022-09-13T12:51:05;100856.00;;;22.05;61.14
48614;BME280;34408;51.426;5.444;2022-09-13T12:54:05;100853.16;;;22.11;61.30
48614;BME280;34408;51.426;5.444;2022-09-13T12:56:58;100851.47;;;22.15;61.83
48614;BME280;34408;51.426;5.444;2022-09-13T12:59:38;100858.78;;;22.19;60.83
48614;BME280;34408;51.426;5.444;2022-09-13T13:02:28;100858.47;;;22.21;61.04
48614;BME280;34408;51.426;5.444;2022-09-13T13:05:01;100857.06;;;22.23;60.56
48614;BME280;34408;51.426;5.444;2022-09-13T13:07:34;100860.63;;;22.24;60.48
48614;BME280;34408;51.426;5.444;2022-09-13T13:10:04;100855.66;;;22.26;60.07
48614;BME280;34408;51.426;5.444;2022-09-13T13:12:33;100841.66;;;22.27;59.87
48614;BME280;34408;51.426;5.444;2022-09-13T13:15:05;100852.31;;;22.29;60.44
48614;BME280;34408;51.426;5.444;2022-09-13T13:17:40;100848.47;;;22.30;59.93
48614;BME280;34408;51.426;5.444;2022-09-13T13:20:40;100847.34;;;22.31;60.17
48614;BME280;34408;51.426;5.444;2022-09-13T13:23:24;100844.81;;;22.34;60.35
48614;BME280;34408;51.426;5.444;2022-09-13T13:25:56;100845.63;;;22.35;60.40
48614;BME280;34408;51.426;5.444;2022-09-13T13:28:48;100846.66;;;22.39;60.15
48614;BME280;34408;51.426;5.444;2022-09-13T13:31:35;100846.16;;;22.37;59.98